Time;durP1;ratioP1;P1;durP2;ratioP2;P2;SDS_P1;SDS_P2;PMS_P1;PMS_P2;Temp;Humidity;BMP_temperature;BMP_pressure;BME280_temperature;BME280_humidity;BME280_pressure;Samples;Min_cycle;Max_cycle;Signal;HPM_P1;HPM_P2
2022/04/12 00:01:03;;;;;;;;;3.33;3.33;;;;;16.53;51.89;100037.13;4998579;27;45345;-55
2022/04/12 00:03:29;;;;;;;;;3.00;3.00;;;;;16.50;51.49;100032.06;4978628;27;46374;-56
2022/04/12 00:05:54;;;;;;;;;3.67;2.00;;;;;16.52;52.15;100027.38;4979844;27;46644;-55
2022/04/12 00:08:20;;;;;;;;;4.67;4.67;;;;;16.45;52.01;100020.88;4982439;28;45443;-56
2022/04/12 00:10:46;;;;;;;;;1.00;1.00;;;;;16.47;52.00;100021.59;4979596;28;45673;-55
2022/04/12 00:13:12;;;;;;;;;4.33;4.33;;;;;16.42;52.33;100026.53;4992537;28;45959;-58
2022/04/12 00:15:38;;;;;;;;;6.33;6.33;;;;;16.41;52.59;100029.38;4984363;27;45471;-56
2022/04/12 00:20:49;;;;;;;;;5.00;5.00;;;;;16.32;52.65;100025.66;4975175;28;46570;-55
2022/04/12 00:23:15;;;;;;;;;4.00;4.00;;;;;16.31;52.79;100026.66;4974593;28;46227;-57
2022/04/12 00:25:44;;;;;;;;;10.50;5.00;;;;;16.27;52.84;100030.56;4976766;28;45446;-56
2022/04/12 00:28:10;;;;;;;;;4.00;4.00;;;;;16.27;52.82;100030.56;4975844;28;45482;-55
2022/04/12 00:30:36;;;;;;;;;3.00;3.00;;;;;16.22;53.08;100022.94;4975808;28;45457;-54
2022/04/12 00:33:02;;;;;;;;;4.00;4.00;;;;;16.19;53.01;100033.09;4975052;28;46552;-55
2022/04/12 00:35:27;;;;;;;;;4.33;4.33;;;;;16.14;53.17;100036.16;4973400;28;45340;-56
2022/04/12 00:37:53;;;;;;;;;3.67;3.67;;;;;16.18;53.12;100036.75;4974427;28;45484;-56
2022/04/12 00:40:24;;;;;;;;;4.67;4.00;;;;;16.16;53.26;100028.00;4977689;28;45403;-55
2022/04/12 00:42:51;;;;;;;;;5.67;4.00;;;;;16.12;53.47;100031.91;4986537;28;47016;-55
2022/04/12 00:45:17;;;;;;;;;3.00;3.00;;;;;16.05;53.80;100022.72;4981222;28;46072;-54
2022/04/12 00:47:43;;;;;;;;;6.00;4.00;;;;;16.01;53.42;100019.44;4979881;28;45376;-55
2022/04/12 00:50:10;;;;;;;;;4.00;4.00;;;;;16.01;53.80;100013.22;4974223;28;45556;-56
2022/04/12 00:52:49;;;;;;;;;3.33;3.33;;;;;15.94;54.39;100015.63;4989109;28;46536;-54
2022/04/12 00:55:15;;;;;;;;;3.67;3.00;;;;;15.90;53.62;100008.84;4993057;27;45497;-57
2022/04/12 00:57:42;;;;;;;;;3.33;3.33;;;;;15.83;54.10;99997.78;4976704;27;45361;-55
2022/04/12 01:00:12;;;;;;;;;4.00;4.00;;;;;15.84;53.97;99999.47;4991894;27;45563;-60
2022/04/12 01:02:37;;;;;;;;;4.00;4.00;;;;;15.86;54.08;100018.09;4986935;28;46221;-58
2022/04/12 01:05:04;;;;;;;;;3.67;3.67;;;;;15.82;53.88;100006.81;4992235;28;45346;-56
2022/04/12 01:07:30;;;;;;;;;5.33;3.00;;;;;15.79;54.19;100014.28;4984439;27;45287;-56
2022/04/12 01:09:59;;;;;;;;;4.00;4.00;;;;;15.72;54.59;100019.31;4973231;28;45616;-57
2022/04/12 01:12:28;;;;;;;;;4.67;3.67;;;;;15.63;54.52;100004.03;4985927;28;45448;-56
2022/04/12 01:14:54;;;;;;;;;5.67;3.00;;;;;15.68;55.25;100000.94;4970327;28;45595;-56
2022/04/12 01:17:20;;;;;;;;;3.67;3.67;;;;;15.66;54.91;99994.88;4983837;28;45444;-57
2022/04/12 01:19:45;;;;;;;;;3.00;3.00;;;;;15.61;55.16;100001.47;4975040;27;45395;-56
2022/04/12 01:22:23;;;;;;;;;4.00;4.00;;;;;15.58;55.13;99990.97;4971691;28;47889;-55
2022/04/12 01:24:49;;;;;;;;;5.00;4.00;;;;;15.58;55.00;100006.22;4981375;28;45692;-56
2022/04/12 01:27:15;;;;;;;;;3.00;3.00;;;;;15.55;55.26;100001.13;4989883;28;45732;-56
2022/04/12 01:29:40;;;;;;;;;7.00;2.33;;;;;15.51;55.04;100007.75;4980740;28;45392;-56
2022/04/12 01:32:07;;;;;;;;;3.33;3.33;;;;;15.48;55.56;99999.94;4974174;28;47669;-56
2022/04/12 01:34:36;;;;;;;;;5.33;5.00;;;;;15.47;55.17;100000.94;4978624;28;45465;-57
2022/04/12 01:37:07;;;;;;;;;4.00;4.00;;;;;15.34;55.45;99993.09;4992445;27;45242;-56
2022/04/12 01:39:33;;;;;;;;;4.00;4.00;;;;;15.41;56.00;100001.47;4978853;28;45534;-56
2022/04/12 01:41:58;;;;;;;;;5.00;5.00;;;;;15.18;55.70;99969.44;4972795;28;45646;-56
2022/04/12 01:44:24;;;;;;;;;3.67;3.67;;;;;15.31;55.96;99996.88;4986798;27;45513;-56
2022/04/12 01:46:49;;;;;;;;;3.33;3.33;;;;;15.14;55.73;99994.78;4973347;28;45354;-56
2022/04/12 01:49:16;;;;;;;;;4.33;4.33;;;;;15.13;56.00;99990.41;4975159;28;45564;-57
2022/04/12 01:51:42;;;;;;;;;4.33;4.00;;;;;15.18;55.87;100001.59;4978012;28;45705;-56
2022/04/12 01:54:07;;;;;;;;;3.33;3.33;;;;;15.11;56.51;100012.97;4996362;28;45250;-56
2022/04/12 01:56:33;;;;;;;;;2.33;2.33;;;;;15.16;56.16;100022.28;4994960;27;45374;-56
2022/04/12 01:59:00;;;;;;;;;6.00;4.00;;;;;15.12;56.40;100020.00;4994332;27;45566;-55
2022/04/12 02:01:25;;;;;;;;;3.00;3.00;;;;;15.12;55.90;100020.88;5028178;28;45447;-56
2022/04/12 02:03:50;;;;;;;;;2.67;2.67;;;;;15.06;56.52;100007.97;4994101;28;45499;-56
2022/04/12 02:06:16;;;;;;;;;3.00;2.67;;;;;15.02;56.53;100009.22;4977476;27;45527;-56
2022/04/12 02:08:43;;;;;;;;;9.67;4.00;;;;;14.99;56.64;100004.13;4976632;28;45380;-54
2022/04/12 02:11:09;;;;;;;;;4.00;4.00;;;;;14.98;56.67;100005.94;4993918;27;45489;-56
2022/04/12 02:13:34;;;;;;;;;3.33;3.33;;;;;14.98;56.45;100000.59;4996647;28;45295;-56
2022/04/12 02:16:00;;;;;;;;;5.33;4.33;;;;;14.97;56.74;99995.34;4993741;27;45410;-55
2022/04/12 02:18:25;;;;;;;;;5.00;4.00;;;;;14.92;56.61;99998.41;4996439;28;45271;-58
2022/04/12 02:20:51;;;;;;;;;5.00;3.67;;;;;14.90;57.25;99994.19;4983448;28;45511;-62
2022/04/12 02:23:16;;;;;;;;;3.33;3.33;;;;;14.89;57.01;99997.84;5077106;28;45311;-56
2022/04/12 02:25:41;;;;;;;;;3.67;3.67;;;;;14.89;57.10;99987.97;4988362;27;45314;-55
2022/04/12 02:28:07;;;;;;;;;5.00;5.00;;;;;14.86;56.74;99977.53;4978786;28;45670;-57
2022/04/12 02:30:32;;;;;;;;;2.33;2.00;;;;;14.86;56.54;99980.19;4976206;28;46008;-56
2022/04/12 02:32:58;;;;;;;;;4.00;4.00;;;;;14.80;56.72;99970.00;4979458;28;45389;-56
2022/04/12 02:35:25;;;;;;;;;4.67;3.33;;;;;14.81;56.91;99976.19;4989209;28;45487;-56
2022/04/12 02:37:50;;;;;;;;;4.67;4.67;;;;;14.84;56.57;99983.97;4977744;28;45580;-56
2022/04/12 02:40:17;;;;;;;;;6.00;6.00;;;;;14.82;56.54;99996.63;4975793;28;45943;-56
2022/04/12 02:42:43;;;;;;;;;4.00;4.00;;;;;14.72;56.73;99994.72;4966360;28;45516;-56
2022/04/12 02:45:08;;;;;;;;;7.00;4.33;;;;;14.77;57.18;100001.53;4995359;27;45400;-56
2022/04/12 02:47:33;;;;;;;;;5.00;3.00;;;;;14.67;56.79;99994.25;4993958;27;45654;-57
2022/04/12 02:49:59;;;;;;;;;2.00;2.00;;;;;14.65;57.06;99985.50;4995133;27;46186;-55
2022/04/12 02:52:24;;;;;;;;;4.00;4.00;;;;;14.75;56.62;99999.81;4993127;28;45429;-56
2022/04/12 02:54:50;;;;;;;;;3.00;3.00;;;;;14.78;56.47;100011.25;4993368;28;45316;-56
2022/04/12 02:57:15;;;;;;;;;5.00;3.33;;;;;14.73;56.57;100004.47;5003833;27;45557;-56
2022/04/12 02:59:41;;;;;;;;;4.00;4.00;;;;;14.67;56.52;99998.75;4978690;28;46054;-56
2022/04/12 03:02:06;;;;;;;;;5.67;3.00;;;;;14.67;56.59;99993.41;5018160;27;45266;-57
2022/04/12 03:04:32;;;;;;;;;0.00;0.00;;;;;14.66;56.60;99997.91;4994911;27;45221;-55
2022/04/12 03:06:57;;;;;;;;;5.00;3.00;;;;;14.61;56.17;99978.72;4994823;27;45580;-56
2022/04/12 03:09:23;;;;;;;;;4.00;4.00;;;;;14.64;55.91;99981.13;4975754;28;46051;-56
2022/04/12 03:11:48;;;;;;;;;4.00;4.00;;;;;14.63;56.26;99970.56;4974683;28;45402;-55
2022/04/12 03:14:14;;;;;;;;;4.33;3.33;;;;;14.62;56.56;99972.38;4984345;28;45470;-56
2022/04/12 03:16:39;;;;;;;;;3.33;3.00;;;;;14.61;56.30;99965.31;4978646;28;45529;-57
2022/04/12 03:19:04;;;;;;;;;7.33;4.00;;;;;14.57;56.21;99955.84;4992234;27;46827;-55
2022/04/12 03:21:33;;;;;;;;;4.00;3.00;;;;;14.57;55.83;99958.50;4970622;28;45465;-55
2022/04/12 03:23:58;;;;;;;;;4.00;4.00;;;;;14.58;55.78;99952.19;4957167;28;45429;-56
2022/04/12 03:26:23;;;;;;;;;6.67;4.00;;;;;14.59;55.48;99961.09;4958417;28;45444;-57
2022/04/12 03:28:49;;;;;;;;;4.00;3.00;;;;;14.57;55.49;99966.53;4963450;28;46179;-55
2022/04/12 03:31:14;;;;;;;;;3.00;3.00;;;;;14.52;55.26;99970.59;4959432;28;45472;-55
2022/04/12 03:33:39;;;;;;;;;3.00;3.00;;;;;14.50;55.30;99968.03;4956667;28;45487;-55
2022/04/12 03:36:05;;;;;;;;;3.67;3.67;;;;;14.53;55.43;99964.25;4977697;27;45659;-55
2022/04/12 03:38:30;;;;;;;;;5.33;3.33;;;;;14.49;55.20;99952.97;4958825;28;45613;-56
2022/04/12 03:40:58;;;;;;;;;3.00;3.00;;;;;14.51;55.12;99959.03;4971794;28;45353;-55
2022/04/12 03:43:24;;;;;;;;;3.67;3.67;;;;;14.42;55.01;99959.75;4974318;28;45414;-55
2022/04/12 03:45:49;;;;;;;;;4.00;4.00;;;;;14.39;55.32;99968.88;4971211;28;45596;-56
2022/04/12 03:48:15;;;;;;;;;3.33;2.67;;;;;14.43;55.08;99988.19;4956872;28;47307;-55
2022/04/12 03:50:40;;;;;;;;;2.67;2.67;;;;;14.47;55.01;99994.19;4975542;28;45439;-57
2022/04/12 03:53:06;;;;;;;;;4.00;3.67;;;;;14.43;54.93;99991.72;4968537;28;45616;-55
2022/04/12 03:55:31;;;;;;;;;3.00;3.00;;;;;14.43;54.54;99990.88;4975849;28;45464;-56
2022/04/12 03:58:05;;;;;;;;;2.33;2.33;;;;;14.42;55.29;99981.16;4969030;28;45656;-55
2022/04/12 04:00:31;;;;;;;;;3.00;3.00;;;;;14.42;54.62;99973.13;4981312;28;45478;-57
2022/04/12 04:02:57;;;;;;;;;4.00;4.00;;;;;14.36;54.88;99978.97;4972900;28;45497;-55
2022/04/12 04:05:24;;;;;;;;;3.00;3.00;;;;;14.36;54.60;99978.97;4973974;28;45539;-56
2022/04/12 04:07:49;;;;;;;;;4.00;4.00;;;;;14.35;54.98;99962.09;4956855;28;45882;-56
2022/04/12 04:10:15;;;;;;;;;3.33;3.00;;;;;14.35;54.54;99964.75;4963536;28;45567;-54
2022/04/12 04:12:42;;;;;;;;;3.33;3.33;;;;;14.30;54.21;99974.97;4988575;28;45504;-55
2022/04/12 04:15:12;;;;;;;;;3.67;3.00;;;;;14.26;54.28;99965.50;4973628;28;45287;-57
2022/04/12 04:17:40;;;;;;;;;3.00;3.00;;;;;14.29;54.71;99983.97;4973642;28;46494;-56
2022/04/12 04:20:06;;;;;;;;;2.33;2.00;;;;;14.29;54.36;99992.00;4976272;28;45240;-55
2022/04/12 04:22:31;;;;;;;;;2.00;2.00;;;;;14.23;53.66;99979.13;4974137;27;45309;-56
2022/04/12 04:24:56;;;;;;;;;5.00;3.00;;;;;14.21;54.25;99972.22;4974743;28;45242;-55
2022/04/12 04:27:23;;;;;;;;;2.67;2.00;;;;;14.28;54.00;99992.13;4986382;28;47503;-57
2022/04/12 04:29:48;;;;;;;;;3.67;3.67;;;;;14.25;53.83;99989.69;4975201;28;45396;-56
2022/04/12 04:32:14;;;;;;;;;3.67;2.00;;;;;14.18;54.07;99990.19;4977970;28;45249;-56
2022/04/12 04:34:39;;;;;;;;;3.00;3.00;;;;;14.24;54.17;99996.03;4973467;28;45608;-55
2022/04/12 04:37:04;;;;;;;;;2.67;2.67;;;;;14.17;54.12;99988.47;4975233;28;46196;-56
2022/04/12 04:39:30;;;;;;;;;3.00;3.00;;;;;14.04;53.89;99989.59;4975318;28;45515;-56
2022/04/12 04:41:55;;;;;;;;;4.67;3.00;;;;;14.08;53.79;99997.25;4973589;28;45508;-54
2022/04/12 04:44:21;;;;;;;;;3.67;1.67;;;;;14.09;53.76;100004.31;4973935;27;45399;-55
2022/04/12 04:46:46;;;;;;;;;4.33;4.33;;;;;14.07;54.21;99995.56;4965025;28;46989;-56
2022/04/12 04:49:11;;;;;;;;;3.33;3.00;;;;;13.99;53.79;99984.63;4992054;28;45397;-55
2022/04/12 04:51:41;;;;;;;;;3.33;3.33;;;;;14.05;53.76;100002.81;4990737;28;45426;-56
2022/04/12 04:54:07;;;;;;;;;5.00;4.00;;;;;13.97;53.82;100007.09;4973896;28;45426;-55
2022/04/12 04:56:32;;;;;;;;;4.00;4.00;;;;;13.98;53.96;100006.97;4983850;28;46344;-56
2022/04/12 04:58:58;;;;;;;;;3.00;2.67;;;;;14.01;54.04;100016.56;4974373;28;45847;-56
2022/04/12 05:01:23;;;;;;;;;3.67;3.67;;;;;13.95;53.65;100001.88;4985602;27;45646;-56
2022/04/12 05:03:50;;;;;;;;;3.00;3.00;;;;;14.00;54.18;100015.72;4976070;27;45693;-56
2022/04/12 05:06:16;;;;;;;;;7.67;3.67;;;;;13.98;53.83;100014.16;4974454;28;45992;-55
2022/04/12 05:08:41;;;;;;;;;4.67;4.00;;;;;13.94;54.17;100016.22;4987107;28;45602;-56
2022/04/12 05:11:06;;;;;;;;;3.00;3.00;;;;;13.93;54.19;100008.31;4981040;28;45971;-55
2022/04/12 05:13:32;;;;;;;;;2.33;2.33;;;;;13.85;53.73;100008.94;4981790;28;45446;-56
2022/04/12 05:15:57;;;;;;;;;6.00;4.33;;;;;13.83;54.04;100014.41;4976948;27;46188;-60
2022/04/12 05:18:23;;;;;;;;;8.00;4.00;;;;;13.87;54.07;100031.03;4991321;27;45823;-55
2022/04/12 05:20:49;;;;;;;;;3.00;3.00;;;;;13.86;54.19;100034.69;4979198;28;45365;-56
2022/04/12 05:23:16;;;;;;;;;3.33;3.33;;;;;13.86;53.63;100040.03;4976349;28;45309;-56
2022/04/12 05:25:41;;;;;;;;;3.67;3.67;;;;;13.84;53.71;100044.66;4972845;28;47498;-59
2022/04/12 05:28:06;;;;;;;;;4.00;4.00;;;;;13.81;53.97;100035.06;4979612;28;45437;-56
2022/04/12 05:30:32;;;;;;;;;4.33;3.00;;;;;13.79;53.88;100041.47;4982929;27;45552;-58
2022/04/12 05:32:58;;;;;;;;;9.00;5.00;;;;;13.79;54.13;100049.47;4982047;28;45449;-56
2022/04/12 05:35:23;;;;;;;;;4.00;4.00;;;;;13.81;54.26;100058.25;4985618;27;46234;-55
2022/04/12 05:37:52;;;;;;;;;3.00;3.00;;;;;13.79;53.86;100049.47;4983645;28;45317;-57
2022/04/12 05:40:18;;;;;;;;;4.00;4.00;;;;;13.75;53.75;100029.31;4985038;27;45407;-57
2022/04/12 05:42:45;;;;;;;;;4.67;3.67;;;;;13.84;53.63;100041.97;4979813;28;45637;-54
2022/04/12 05:45:12;;;;;;;;;5.67;3.33;;;;;13.84;54.12;100036.63;4987805;28;45407;-55
2022/04/12 05:47:43;;;;;;;;;4.33;4.33;;;;;13.86;53.81;100046.22;4972963;28;45453;-54
2022/04/12 05:50:10;;;;;;;;;5.33;4.00;;;;;13.84;53.99;100045.50;4980922;28;45409;-57
2022/04/12 05:52:35;;;;;;;;;6.33;6.33;;;;;13.81;54.36;100045.75;4991028;28;45434;-54
2022/04/12 05:55:01;;;;;;;;;7.00;7.00;;;;;13.86;54.29;100056.91;4992921;28;45301;-59
2022/04/12 05:57:26;;;;;;;;;5.00;3.00;;;;;13.87;54.08;100047.91;4989836;27;45173;-55
2022/04/12 05:59:51;;;;;;;;;5.00;5.00;;;;;13.94;53.97;100053.66;4980519;28;45543;-55
2022/04/12 06:02:17;;;;;;;;;11.00;8.00;;;;;13.97;54.20;100056.06;5048251;27;45590;-56
2022/04/12 06:04:42;;;;;;;;;4.00;4.00;;;;;13.92;53.49;100044.03;4992673;27;46127;-57
2022/04/12 06:07:08;;;;;;;;;5.00;3.00;;;;;14.00;53.91;100053.16;4979760;27;45483;-54
2022/04/12 06:09:33;;;;;;;;;4.00;4.00;;;;;14.01;53.54;100054.00;4975780;28;45409;-53
2022/04/12 06:11:58;;;;;;;;;3.67;3.67;;;;;14.03;53.49;100057.41;4989451;28;45515;-56
2022/04/12 06:14:24;;;;;;;;;8.33;4.67;;;;;14.04;53.68;100076.00;4990372;27;46861;-58
2022/04/12 06:16:49;;;;;;;;;7.67;5.00;;;;;14.06;53.52;100067.84;4991119;28;45216;-56
2022/04/12 06:19:14;;;;;;;;;9.00;5.00;;;;;14.09;53.49;100063.13;4974362;28;45506;-56
2022/04/12 06:21:40;;;;;;;;;6.00;5.00;;;;;14.08;53.58;100061.44;4972296;28;45632;-56
2022/04/12 06:24:06;;;;;;;;;6.00;5.33;;;;;14.14;53.56;100054.72;4970545;28;46098;-55
2022/04/12 06:26:31;;;;;;;;;8.00;7.00;;;;;14.21;53.42;100071.16;4978716;28;45689;-56
2022/04/12 06:28:56;;;;;;;;;6.00;4.33;;;;;14.21;52.99;100079.19;4977402;27;45503;-56
2022/04/12 06:31:22;;;;;;;;;6.33;4.67;;;;;14.26;53.29;100072.50;4975549;28;45482;-54
2022/04/12 06:33:48;;;;;;;;;3.67;3.67;;;;;14.31;52.53;100078.31;4972352;28;47533;-55
2022/04/12 06:36:13;;;;;;;;;3.00;3.00;;;;;14.36;53.15;100086.00;5027575;27;45653;-56
2022/04/12 06:38:39;;;;;;;;;4.00;4.00;;;;;14.40;52.38;100092.78;5064286;28;45360;-61
2022/04/12 06:41:04;;;;;;;;;4.00;4.00;;;;;14.43;51.89;100097.88;4974557;28;45320;-56
2022/04/12 06:43:29;;;;;;;;;5.67;4.00;;;;;14.43;52.18;100103.22;5015051;28;46854;-56
2022/04/12 06:45:55;;;;;;;;;5.67;5.67;;;;;14.44;51.83;100102.28;5028503;27;45502;-54
2022/04/12 06:48:20;;;;;;;;;4.00;4.00;;;;;14.51;51.93;100111.53;4988847;28;45402;-57
2022/04/12 06:50:46;;;;;;;;;7.00;4.00;;;;;14.45;51.33;100090.63;4993500;28;45450;-54
2022/04/12 06:53:11;;;;;;;;;6.67;4.33;;;;;14.60;51.51;100118.84;5064560;27;45320;-54
2022/04/12 06:55:37;;;;;;;;;4.00;4.00;;;;;14.59;51.44;100109.13;5067786;27;45465;-55
2022/04/12 06:58:02;;;;;;;;;4.33;3.33;;;;;14.62;51.43;100108.88;4989489;28;45349;-57
2022/04/12 07:00:28;;;;;;;;;6.33;4.67;;;;;14.73;50.97;100132.94;4963650;28;45326;-54
2022/04/12 07:02:54;;;;;;;;;8.00;5.00;;;;;14.54;50.93;100105.09;4985808;28;46086;-57
2022/04/12 07:05:19;;;;;;;;;3.67;3.67;;;;;14.70;50.99;100149.22;4952184;28;45289;-56
2022/04/12 07:07:45;;;;;;;;;3.00;3.00;;;;;14.69;50.87;100146.69;4967214;28;45484;-56
2022/04/12 07:10:13;;;;;;;;;4.67;4.67;;;;;14.73;50.92;100140.97;4986612;28;45792;-57
2022/04/12 07:12:39;;;;;;;;;6.67;4.67;;;;;14.78;50.62;100129.88;4958297;28;45991;-56
2022/04/12 07:15:05;;;;;;;;;3.33;3.33;;;;;14.77;50.24;100138.88;4974449;28;45876;-54
2022/04/12 07:17:31;;;;;;;;;3.67;1.00;;;;;14.83;50.86;100157.13;4966524;28;45293;-62
2022/04/12 07:20:01;;;;;;;;;5.00;4.00;;;;;14.75;49.93;100147.03;4969005;28;45533;-56
2022/04/12 07:22:27;;;;;;;;;3.00;3.00;;;;;14.69;49.69;100146.69;4985210;27;45423;-56
2022/04/12 07:24:52;;;;;;;;;3.67;3.67;;;;;14.81;49.49;100160.91;4974885;28;45416;-56
2022/04/12 07:27:18;;;;;;;;;5.00;4.00;;;;;14.84;49.77;100147.25;4964715;28;45454;-56
2022/04/12 07:29:43;;;;;;;;;5.00;4.00;;;;;14.82;49.92;100127.81;4967004;28;45579;-57
2022/04/12 07:32:09;;;;;;;;;4.33;4.00;;;;;14.87;49.18;100130.97;4963520;28;45552;-55
2022/04/12 07:34:34;;;;;;;;;6.00;5.00;;;;;14.92;49.74;100142.16;4963135;28;46167;-57
2022/04/12 07:37:00;;;;;;;;;4.00;4.00;;;;;15.01;49.64;100142.25;4963726;28;45461;-55
2022/04/12 07:39:25;;;;;;;;;9.67;5.00;;;;;15.11;49.38;100153.09;4959576;28;45468;-55
2022/04/12 07:41:52;;;;;;;;;4.00;4.00;;;;;15.12;49.55;100160.13;4957338;28;45524;-55
2022/04/12 07:44:19;;;;;;;;;3.33;3.33;;;;;15.23;48.82;100162.75;4974343;28;45280;-56
2022/04/12 07:46:45;;;;;;;;;3.67;3.67;;;;;15.18;48.60;100156.94;4957056;28;45471;-56
2022/04/12 07:49:11;;;;;;;;;4.00;4.00;;;;;15.26;48.88;100146.47;4954344;28;45513;-55
2022/04/12 07:51:37;;;;;;;;;6.00;3.67;;;;;15.35;49.02;100155.53;4969417;28;45994;-54
2022/04/12 07:54:04;;;;;;;;;3.00;3.00;;;;;15.31;48.71;100143.38;4965241;27;45562;-57
2022/04/12 07:56:31;;;;;;;;;4.33;4.33;;;;;15.34;48.84;100143.97;5026798;27;45459;-55
2022/04/12 07:58:56;;;;;;;;;3.00;2.33;;;;;15.42;48.29;100147.84;5031793;28;45907;-58
2022/04/12 08:01:22;;;;;;;;;5.00;4.00;;;;;15.52;48.16;100149.66;4973945;28;46060;-57
2022/04/12 08:03:48;;;;;;;;;5.67;3.00;;;;;15.58;48.49;100150.94;4967671;28;45340;-57
2022/04/12 08:06:16;;;;;;;;;4.67;4.00;;;;;15.67;48.35;100139.50;4975593;28;45405;-60
2022/04/12 08:08:41;;;;;;;;;4.00;4.00;;;;;15.76;47.98;100152.13;4976639;27;45722;-58
2022/04/12 08:11:07;;;;;;;;;4.00;3.00;;;;;15.82;47.19;100150.75;4976962;28;46059;-57
2022/04/12 08:13:33;;;;;;;;;4.00;4.00;;;;;15.86;48.03;100144.13;4974048;28;45576;-56
2022/04/12 08:15:59;;;;;;;;;3.00;3.00;;;;;15.93;47.54;100130.09;4988698;28;45378;-58
2022/04/12 08:18:24;;;;;;;;;4.00;4.00;;;;;16.00;47.57;100137.59;4985351;27;45520;-58
2022/04/12 08:20:50;;;;;;;;;2.00;2.00;;;;;16.07;46.96;100136.09;4993068;28;45328;-58
2022/04/12 08:23:17;;;;;;;;;4.00;4.00;;;;;16.04;47.34;100137.22;4995028;28;45457;-56
2022/04/12 08:25:42;;;;;;;;;5.33;3.67;;;;;16.13;46.66;100139.09;4994911;28;45776;-56
2022/04/12 08:28:09;;;;;;;;;4.67;3.00;;;;;16.13;46.93;100124.81;4995308;27;45515;-58
2022/04/12 08:30:35;;;;;;;;;3.67;3.33;;;;;16.30;46.85;100143.00;4987087;28;45381;-55
2022/04/12 08:33:02;;;;;;;;;3.00;3.00;;;;;16.36;46.99;100145.16;4975328;28;45402;-58
2022/04/12 08:35:28;;;;;;;;;5.00;5.00;;;;;16.54;46.12;100148.06;4975888;28;45385;-56
2022/04/12 08:37:54;;;;;;;;;3.00;3.00;;;;;16.60;46.20;100127.88;4974860;28;45366;-56
2022/04/12 08:40:20;;;;;;;;;4.67;3.00;;;;;16.90;45.75;100143.97;4976739;28;45460;-58
2022/04/12 08:42:46;;;;;;;;;4.00;4.00;;;;;17.07;45.15;100131.72;5009667;28;45176;-57
2022/04/12 08:45:12;;;;;;;;;3.00;3.00;;;;;17.28;44.97;100134.28;5093382;27;45296;-56
2022/04/12 08:47:42;;;;;;;;;5.00;3.00;;;;;17.53;44.59;100128.34;5078559;27;45344;-55
2022/04/12 08:50:14;;;;;;;;;5.00;3.67;;;;;17.71;44.43;100119.59;4982857;28;46865;-58
2022/04/12 08:52:40;;;;;;;;;2.67;2.67;;;;;17.95;43.39;100120.84;4985175;28;45984;-57
2022/04/12 08:55:07;;;;;;;;;2.67;2.67;;;;;18.10;42.63;100115.88;4973052;28;45500;-56
2022/04/12 08:57:32;;;;;;;;;4.00;4.00;;;;;18.35;43.17;100135.88;4973293;28;45408;-57
2022/04/12 08:59:58;;;;;;;;;1.67;1.67;;;;;18.46;42.35;100126.78;4961328;28;45453;-56
2022/04/12 09:02:23;;;;;;;;;2.33;1.00;;;;;18.63;41.97;100128.72;4956798;28;45552;-57
2022/04/12 09:04:49;;;;;;;;;2.33;1.67;;;;;18.76;41.50;100131.94;4954736;28;45418;-56
2022/04/12 09:07:15;;;;;;;;;2.33;2.00;;;;;18.95;41.89;100125.59;4961812;28;45613;-56
2022/04/12 09:09:42;;;;;;;;;1.00;1.00;;;;;19.16;40.84;100125.31;4973960;28;45758;-55
2022/04/12 09:12:10;;;;;;;;;1.33;1.33;;;;;19.32;40.86;100127.34;4973483;28;45491;-54
2022/04/12 09:14:41;;;;;;;;;3.67;2.00;;;;;19.39;40.10;100129.25;4972463;28;45461;-54
2022/04/12 09:17:12;;;;;;;;;3.67;2.00;;;;;19.57;39.92;100118.50;4972228;28;45494;-56
2022/04/12 09:19:46;;;;;;;;;2.00;1.00;;;;;19.76;39.99;100122.03;4978526;28;45477;-56
2022/04/12 09:22:14;;;;;;;;;3.00;1.00;;;;;19.90;39.41;100121.44;4991694;28;45397;-57
2022/04/12 09:24:54;;;;;;;;;2.00;1.00;;;;;20.04;39.63;100112.78;4983686;27;45474;-56
2022/04/12 09:27:22;;;;;;;;;1.67;1.67;;;;;20.20;38.76;100130.97;4975197;28;45474;-56
2022/04/12 09:29:55;;;;;;;;;2.00;2.00;;;;;20.40;39.24;100127.00;4989731;28;47792;-57
2022/04/12 09:32:22;;;;;;;;;5.00;1.00;;;;;20.73;38.66;100121.81;4984186;28;45464;-57
2022/04/12 09:34:49;;;;;;;;;3.67;2.00;;;;;20.79;36.66;100104.94;4960632;28;45444;-56
2022/04/12 09:37:23;;;;;;;;;4.00;1.00;;;;;21.09;38.05;100095.38;4954449;28;45466;-53
2022/04/12 09:40:02;;;;;;;;;3.00;2.00;;;;;21.54;37.06;100103.09;4962082;28;45498;-56
2022/04/12 09:42:50;;;;;;;;;2.00;2.00;;;;;21.75;37.33;100103.44;4996173;28;45485;-56
2022/04/12 09:45:17;;;;;;;;;1.00;1.00;;;;;21.86;35.63;100101.41;5039171;27;45453;-58
2022/04/12 09:47:44;;;;;;;;;3.00;3.00;;;;;21.84;36.56;100108.84;4991968;28;45421;-54
2022/04/12 09:50:11;;;;;;;;;3.00;3.00;;;;;21.96;36.08;100099.34;4990822;27;45536;-57
2022/04/12 09:52:37;;;;;;;;;2.50;1.50;;;;;22.10;36.21;100097.84;4975199;28;45335;-57
2022/04/12 09:55:04;;;;;;;;;2.00;2.00;;;;;21.97;36.46;100091.06;4978724;27;45291;-56
2022/04/12 09:57:30;;;;;;;;;3.00;3.00;;;;;21.88;35.83;100080.44;4988539;27;45364;-57
2022/04/12 09:59:57;;;;;;;;;1.00;1.00;;;;;21.87;36.64;100092.25;4985130;28;46787;-57
2022/04/12 10:02:25;;;;;;;;;2.00;2.00;;;;;21.90;35.44;100095.50;4986638;28;45444;-57
2022/04/12 10:04:52;;;;;;;;;3.00;3.00;;;;;21.93;35.58;100084.31;4993406;28;45459;-56
2022/04/12 10:07:20;;;;;;;;;6.33;4.00;;;;;22.05;35.83;100098.34;4992863;27;45573;-57
2022/04/12 10:09:48;;;;;;;;;2.33;2.33;;;;;21.96;36.57;100096.66;4975573;27;46216;-58
2022/04/12 10:12:14;;;;;;;;;1.00;1.00;;;;;21.72;36.28;100095.66;4993516;28;45542;-56
2022/04/12 10:14:40;;;;;;;;;2.00;2.00;;;;;21.52;35.65;100097.03;4995597;27;45377;-57
2022/04/12 10:17:05;;;;;;;;;2.75;2.75;;;;;21.46;35.98;100087.69;4984659;27;45375;-56
2022/04/12 10:19:32;;;;;;;;;2.25;2.25;;;;;21.28;36.80;100080.75;4976141;27;46142;-55
2022/04/12 10:21:58;;;;;;;;;3.00;3.00;;;;;21.06;37.71;100066.81;4981886;28;45481;-57
2022/04/12 10:24:27;;;;;;;;;2.33;2.33;;;;;20.95;37.77;100042.81;4979947;28;45487;-59
2022/04/12 10:26:55;;;;;;;;;2.00;2.00;;;;;20.96;37.69;100058.00;4987446;28;45378;-57
2022/04/12 10:29:20;;;;;;;;;1.75;1.75;;;;;20.96;37.74;100067.97;4990669;28;45478;-56
2022/04/12 10:32:04;;;;;;;;;2.33;2.33;;;;;20.92;37.68;100060.22;4995274;27;45475;-57
2022/04/12 10:34:30;;;;;;;;;2.67;2.67;;;;;20.83;37.90;100057.66;4995909;28;45834;-61
2022/04/12 10:37:02;;;;;;;;;3.33;2.00;;;;;20.77;38.31;100058.31;4995713;28;45246;-61
2022/04/12 10:39:47;;;;;;;;;6.33;3.00;;;;;20.65;38.23;100038.00;4986671;27;47587;-61
2022/04/12 10:42:19;;;;;;;;;3.00;2.00;;;;;20.61;38.42;100054.56;4974259;28;45311;-62
2022/04/12 10:44:47;;;;;;;;;3.00;2.00;;;;;20.56;38.73;100062.28;5013956;28;45234;-60
2022/04/12 10:47:27;;;;;;;;;3.00;3.00;;;;;20.52;38.85;100077.13;4993317;28;45466;-61
2022/04/12 10:49:58;;;;;;;;;1.67;1.67;;;;;20.56;38.91;100083.06;4989785;28;46478;-60
2022/04/12 10:52:44;;;;;;;;;6.33;4.00;;;;;20.63;38.77;100076.00;4961308;28;46288;-62
2022/04/12 10:55:13;;;;;;;;;5.33;2.67;;;;;20.73;38.97;100078.59;4966265;28;45458;-61
2022/04/12 10:57:39;;;;;;;;;4.00;3.00;;;;;20.87;38.31;100081.50;4990076;27;45270;-60
2022/04/12 11:00:10;;;;;;;;;4.00;2.00;;;;;20.90;38.23;100083.00;4972190;28;45543;-60
2022/04/12 11:02:55;;;;;;;;;5.00;4.00;;;;;20.84;38.60;100081.00;4956252;28;45423;-60
2022/04/12 11:05:44;;;;;;;;;4.67;2.00;;;;;20.90;38.49;100097.38;4955999;28;45776;-60
2022/04/12 11:08:16;;;;;;;;;3.67;3.00;;;;;20.87;38.77;100103.13;4973808;28;45491;-61
2022/04/12 11:11:03;;;;;;;;;4.33;3.33;;;;;20.91;38.14;100103.63;4975800;28;45790;-62
2022/04/12 11:13:31;;;;;;;;;3.00;2.00;;;;;20.91;38.84;100109.03;4975876;28;45231;-61
2022/04/12 11:16:01;;;;;;;;;3.00;3.00;;;;;20.87;38.16;100121.19;4975695;28;45504;-62
2022/04/12 11:18:48;;;;;;;;;4.33;2.67;;;;;20.90;38.87;100120.84;4974314;28;45705;-60
2022/04/12 11:21:15;;;;;;;;;3.00;3.00;;;;;20.85;38.92;100121.34;4974340;28;46161;-60
2022/04/12 11:23:48;;;;;;;;;1.00;1.00;;;;;20.81;39.00;100103.75;4975485;27;45361;-59
2022/04/12 11:26:45;;;;;;;;;3.00;3.00;;;;;20.91;38.83;100126.09;4975758;28;45408;-61
2022/04/12 11:29:22;;;;;;;;;3.33;2.00;;;;;20.93;38.79;100125.94;4987707;28;45441;-62